Time;durP1;ratioP1;P1;durP2;ratioP2;P2;SDS_P1;SDS_P2;PMS_P1;PMS_P2;Temp;Humidity;BMP_temperature;BMP_pressure;BME280_temperature;BME280_humidity;BME280_pressure;Samples;Min_cycle;Max_cycle;Signal;HPM_P1;HPM_P2
2020/12/15 00:01:56;;;;;;;39.63;26.25;;;4.30;85.10;;;;;;4941678;29;20426;-72
2020/12/15 00:04:23;;;;;;;43.03;26.52;;;4.30;85.10;;;;;;4947523;29;20028;-72
2020/12/15 00:06:49;;;;;;;41.70;26.42;;;4.30;85.20;;;;;;4949357;29;20039;-71
2020/12/15 00:09:15;;;;;;;42.95;26.50;;;4.30;85.20;;;;;;4940763;29;20035;-72
2020/12/15 00:11:41;;;;;;;42.42;27.02;;;4.30;85.20;;;;;;4940363;29;20042;-72
2020/12/15 00:14:07;;;;;;;40.90;26.08;;;4.30;85.20;;;;;;4949414;29;20510;-72
2020/12/15 00:16:32;;;;;;;44.80;28.42;;;4.40;85.20;;;;;;4954474;28;20023;-71
2020/12/15 00:18:58;;;;;;;40.47;26.27;;;4.40;85.20;;;;;;4942373;29;20024;-72
2020/12/15 00:21:26;;;;;;;39.35;26.38;;;4.40;85.20;;;;;;4937760;28;20382;-72
2020/12/15 00:23:53;;;;;;;37.45;26.63;;;4.40;85.20;;;;;;4949990;28;20030;-72
2020/12/15 00:26:20;;;;;;;39.38;27.05;;;4.50;85.10;;;;;;4944450;29;20031;-69
2020/12/15 00:28:48;;;;;;;41.75;25.88;;;4.50;84.90;;;;;;4943172;29;20119;-72
2020/12/15 00:31:14;;;;;;;39.42;26.17;;;4.50;85.00;;;;;;4951273;29;20051;-72
2020/12/15 00:33:40;;;;;;;37.38;24.35;;;4.50;85.00;;;;;;4950078;29;20024;-72
2020/12/15 00:36:06;;;;;;;42.72;26.08;;;4.50;84.90;;;;;;4936393;29;20035;-72
2020/12/15 00:38:32;;;;;;;35.63;24.10;;;4.50;84.90;;;;;;4945845;29;20199;-72
2020/12/15 00:40:57;;;;;;;37.72;26.02;;;4.50;84.90;;;;;;4941153;29;20044;-72
2020/12/15 00:43:23;;;;;;;42.58;25.52;;;4.50;84.90;;;;;;4951199;29;20053;-72
2020/12/15 00:45:49;;;;;;;37.55;25.75;;;4.50;84.70;;;;;;4940095;29;20023;-73
2020/12/15 00:48:15;;;;;;;38.55;23.63;;;4.50;84.90;;;;;;4947061;29;20043;-70
2020/12/15 00:50:40;;;;;;;36.17;24.17;;;4.50;84.80;;;;;;4946694;29;20066;-71
2020/12/15 00:53:06;;;;;;;36.05;22.95;;;4.50;84.60;;;;;;4940443;29;20043;-71
2020/12/15 00:55:32;;;;;;;33.92;22.48;;;4.60;84.40;;;;;;4937530;29;20381;-71
2020/12/15 00:57:57;;;;;;;38.03;24.58;;;4.60;84.40;;;;;;4948959;29;20052;-70
2020/12/15 01:00:23;;;;;;;35.92;23.58;;;4.60;84.40;;;;;;4944378;29;20031;-70
2020/12/15 01:02:49;;;;;;;34.47;22.90;;;4.60;84.00;;;;;;4941090;29;20020;-70
2020/12/15 01:05:14;;;;;;;35.97;23.20;;;4.60;83.90;;;;;;4933663;29;20031;-70
2020/12/15 01:07:40;;;;;;;34.50;22.75;;;4.60;83.90;;;;;;4938735;29;20115;-70
2020/12/15 01:10:06;;;;;;;33.92;22.02;;;4.60;83.90;;;;;;4947959;29;20106;-70
2020/12/15 01:12:32;;;;;;;34.70;22.23;;;4.60;84.00;;;;;;4945364;29;20086;-70
2020/12/15 01:14:58;;;;;;;34.42;22.70;;;4.50;84.10;;;;;;4936959;29;20414;-70
2020/12/15 01:17:24;;;;;;;30.70;21.27;;;4.50;84.10;;;;;;4938710;28;20035;-71
2020/12/15 01:19:49;;;;;;;33.60;22.17;;;4.50;84.10;;;;;;4950471;29;20024;-72
2020/12/15 01:22:15;;;;;;;33.55;22.30;;;4.50;84.10;;;;;;4943268;29;20031;-71
2020/12/15 01:24:41;;;;;;;35.25;23.00;;;4.50;84.10;;;;;;4941595;29;20058;-72
2020/12/15 01:27:06;;;;;;;32.10;21.33;;;4.50;84.10;;;;;;4949502;29;20429;-73
2020/12/15 01:29:32;;;;;;;33.20;22.58;;;4.50;84.10;;;;;;4938081;29;20024;-73
2020/12/15 01:32:04;;;;;;;32.95;21.85;;;4.50;84.10;;;;;;4948440;29;20031;-72
2020/12/15 01:34:30;;;;;;;31.50;21.73;;;4.50;84.00;;;;;;4943946;29;20043;-71
2020/12/15 01:36:56;;;;;;;33.90;21.90;;;4.50;84.00;;;;;;4940683;28;20379;-72
2020/12/15 01:39:23;;;;;;;33.55;21.88;;;4.40;84.10;;;;;;4950479;29;20027;-72
2020/12/15 01:41:49;;;;;;;31.10;21.15;;;4.40;84.10;;;;;;4939142;29;20078;-72
2020/12/15 01:44:15;;;;;;;33.30;21.23;;;4.40;84.40;;;;;;4945923;29;20474;-72
2020/12/15 01:46:41;;;;;;;34.90;20.80;;;4.40;84.40;;;;;;4945809;29;20077;-72
2020/12/15 01:49:07;;;;;;;31.48;21.02;;;4.40;84.50;;;;;;4938619;29;20051;-72
2020/12/15 01:51:34;;;;;;;29.67;19.92;;;4.30;84.60;;;;;;4950141;29;20035;-72
2020/12/15 01:54:01;;;;;;;32.35;20.73;;;4.30;84.70;;;;;;4924973;29;20035;-73
2020/12/15 01:56:27;;;;;;;29.50;19.80;;;4.30;84.70;;;;;;4942934;29;20156;-72
2020/12/15 01:58:55;;;;;;;30.08;19.75;;;4.30;84.70;;;;;;4947198;29;20321;-72
2020/12/15 02:01:22;;;;;;;31.75;21.23;;;4.40;84.60;;;;;;4937258;29;20023;-72
2020/12/15 02:03:48;;;;;;;32.83;19.63;;;4.40;84.60;;;;;;4949432;29;20034;-72
2020/12/15 02:06:14;;;;;;;33.40;20.92;;;4.40;84.60;;;;;;4941887;29;20031;-72
2020/12/15 02:08:42;;;;;;;36.75;22.70;;;4.40;84.70;;;;;;4942244;29;20042;-72
2020/12/15 02:11:08;;;;;;;31.30;21.63;;;4.40;84.50;;;;;;4948819;29;20020;-72
2020/12/15 02:13:34;;;;;;;31.83;20.88;;;4.50;84.40;;;;;;4949335;29;20070;-72
2020/12/15 02:16:00;;;;;;;32.58;21.50;;;4.50;84.30;;;;;;4941678;29;20023;-72
2020/12/15 02:18:27;;;;;;;34.35;22.25;;;4.50;84.30;;;;;;4943579;29;20027;-72
2020/12/15 02:20:53;;;;;;;32.97;22.15;;;4.50;84.30;;;;;;4939190;29;20077;-72
2020/12/15 02:23:19;;;;;;;35.63;21.90;;;4.50;84.50;;;;;;4949613;29;20035;-71
2020/12/15 02:25:45;;;;;;;34.75;22.13;;;4.50;84.50;;;;;;4937689;29;20047;-72
2020/12/15 02:28:10;;;;;;;34.15;21.38;;;4.50;84.50;;;;;;4945855;29;20111;-72
2020/12/15 02:30:36;;;;;;;33.67;22.83;;;4.50;84.70;;;;;;4944351;29;20031;-72
2020/12/15 02:33:02;;;;;;;37.17;24.40;;;4.50;84.50;;;;;;4938825;29;20039;-72
2020/12/15 02:35:27;;;;;;;33.95;21.92;;;4.50;84.70;;;;;;4948241;28;20102;-72
2020/12/15 02:37:53;;;;;;;35.28;23.02;;;4.50;84.60;;;;;;4948973;29;20031;-72
2020/12/15 02:40:19;;;;;;;35.60;22.70;;;4.50;84.70;;;;;;4944674;29;20678;-72
2020/12/15 02:42:44;;;;;;;35.22;22.95;;;4.50;84.70;;;;;;4945652;29;20027;-72
2020/12/15 02:45:10;;;;;;;34.20;24.27;;;4.40;84.70;;;;;;4938194;29;20043;-72
2020/12/15 02:47:36;;;;;;;37.08;23.15;;;4.40;84.90;;;;;;4953739;29;20087;-72
2020/12/15 02:50:02;;;;;;;35.33;22.80;;;4.40;84.90;;;;;;4943864;29;20027;-72
2020/12/15 02:52:27;;;;;;;33.92;21.80;;;4.40;84.90;;;;;;4947480;29;20070;-72
2020/12/15 02:54:53;;;;;;;37.15;24.98;;;4.40;84.90;;;;;;4938353;29;20067;-72
2020/12/15 02:57:19;;;;;;;35.30;22.23;;;4.30;85.20;;;;;;4953349;29;20050;-71
2020/12/15 02:59:45;;;;;;;33.72;22.05;;;4.20;85.30;;;;;;4924115;29;20367;-71
2020/12/15 03:02:11;;;;;;;32.03;22.38;;;4.30;85.30;;;;;;4948080;29;20122;-71
2020/12/15 03:04:36;;;;;;;31.13;20.98;;;4.20;85.40;;;;;;4948207;29;20147;-72
2020/12/15 03:07:04;;;;;;;34.17;21.85;;;4.30;85.40;;;;;;4942299;29;20023;-71
2020/12/15 03:09:30;;;;;;;34.28;22.00;;;4.30;85.10;;;;;;4953082;29;20038;-72
2020/12/15 03:11:59;;;;;;;33.58;22.02;;;4.30;85.00;;;;;;4937364;29;20034;-73
2020/12/15 03:14:25;;;;;;;31.00;20.98;;;4.30;85.10;;;;;;4944840;29;20035;-72
2020/12/15 03:16:51;;;;;;;30.85;21.23;;;4.20;85.20;;;;;;4943858;28;20027;-72
2020/12/15 03:19:16;;;;;;;33.38;20.88;;;4.20;85.20;;;;;;4952916;29;20651;-72
2020/12/15 03:21:42;;;;;;;31.98;20.88;;;4.20;85.10;;;;;;4940795;29;20175;-73
2020/12/15 03:24:08;;;;;;;33.05;20.65;;;4.20;84.90;;;;;;4949249;29;20059;-72
2020/12/15 03:26:34;;;;;;;29.10;19.73;;;4.30;84.90;;;;;;4947466;29;20020;-71
2020/12/15 03:28:59;;;;;;;32.78;21.25;;;4.30;84.60;;;;;;4942146;29;20031;-72
2020/12/15 03:31:25;;;;;;;34.17;20.88;;;4.30;84.30;;;;;;4954141;29;20035;-71
2020/12/15 03:33:51;;;;;;;29.33;20.10;;;4.30;84.40;;;;;;4951472;29;20040;-72
2020/12/15 03:36:17;;;;;;;26.58;17.73;;;4.30;84.20;;;;;;4945071;29;20398;-73
2020/12/15 03:38:42;;;;;;;27.08;19.00;;;4.30;84.10;;;;;;4944532;29;20550;-72
2020/12/15 03:41:09;;;;;;;29.25;19.63;;;4.30;83.90;;;;;;4950325;29;20118;-72
2020/12/15 03:43:35;;;;;;;28.60;19.13;;;4.30;83.90;;;;;;4939642;29;20031;-72
2020/12/15 03:46:00;;;;;;;30.85;20.25;;;4.30;84.00;;;;;;4949944;29;20075;-72
2020/12/15 03:48:26;;;;;;;29.58;19.50;;;4.20;83.90;;;;;;4944778;29;20023;-72
2020/12/15 03:50:52;;;;;;;29.50;19.55;;;4.20;84.10;;;;;;4942965;29;20034;-72
2020/12/15 03:53:18;;;;;;;30.50;19.27;;;4.10;84.30;;;;;;4950551;29;20083;-72
2020/12/15 03:55:47;;;;;;;31.10;20.45;;;4.10;84.40;;;;;;4951711;29;20028;-71
2020/12/15 03:58:17;;;;;;;33.35;20.10;;;4.00;84.50;;;;;;4942542;29;20035;-72
2020/12/15 04:00:43;;;;;;;32.35;21.38;;;4.10;84.40;;;;;;4944245;29;20071;-72
2020/12/15 04:03:09;;;;;;;27.38;18.63;;;4.10;84.20;;;;;;4951186;29;20098;-72
2020/12/15 04:05:38;;;;;;;32.30;20.63;;;4.10;84.00;;;;;;4951199;23;20059;-72
2020/12/15 04:08:04;;;;;;;31.55;21.00;;;4.00;84.20;;;;;;4994382;28;20030;-73
2020/12/15 04:10:30;;;;;;;34.60;22.35;;;4.00;84.50;;;;;;4984141;28;20031;-71
2020/12/15 04:12:56;;;;;;;31.00;19.70;;;4.00;84.40;;;;;;4974450;28;20038;-69
2020/12/15 04:15:22;;;;;;;31.52;19.92;;;4.00;84.40;;;;;;4989643;28;20105;-70
2020/12/15 04:17:48;;;;;;;32.25;20.23;;;4.00;84.40;;;;;;4979055;28;20097;-70
2020/12/15 04:20:14;;;;;;;32.70;20.35;;;4.00;84.30;;;;;;4986486;28;20026;-70
2020/12/15 04:22:40;;;;;;;30.90;19.52;;;4.00;84.20;;;;;;4986016;28;20022;-69
2020/12/15 04:25:06;;;;;;;33.15;21.85;;;4.10;84.00;;;;;;4979135;28;20035;-71
2020/12/15 04:27:32;;;;;;;33.17;21.48;;;4.10;83.90;;;;;;4990482;28;20161;-70
2020/12/15 04:29:58;;;;;;;30.77;19.60;;;4.00;83.80;;;;;;4980051;28;20022;-71
2020/12/15 04:32:24;;;;;;;32.05;20.52;;;4.00;83.80;;;;;;4984541;28;20026;-71
2020/12/15 04:34:50;;;;;;;32.92;20.83;;;4.00;83.90;;;;;;4979847;28;20118;-72
2020/12/15 04:37:16;;;;;;;30.23;20.17;;;4.00;84.10;;;;;;4964126;28;20393;-72
2020/12/15 04:39:42;;;;;;;32.65;20.88;;;4.00;84.00;;;;;;4970558;28;20027;-71
2020/12/15 04:42:07;;;;;;;30.23;20.08;;;4.00;83.90;;;;;;4962131;28;20030;-72
2020/12/15 04:44:34;;;;;;;33.40;22.23;;;4.00;83.70;;;;;;4962522;28;20019;-71
2020/12/15 04:47:23;;;;;;;36.13;21.92;;;4.00;83.60;;;;;;4968529;28;20035;-71
2020/12/15 04:49:57;;;;;;;34.63;21.45;;;4.10;83.40;;;;;;4959160;28;20015;-71
2020/12/15 04:52:25;;;;;;;31.17;19.85;;;4.10;83.30;;;;;;4964882;28;20033;-70
2020/12/15 04:54:51;;;;;;;32.10;20.73;;;4.10;83.30;;;;;;4967198;28;20049;-71
2020/12/15 04:57:21;;;;;;;30.50;20.20;;;4.10;83.30;;;;;;4957772;28;20090;-71
2020/12/15 04:59:51;;;;;;;29.63;19.35;;;4.00;83.30;;;;;;4970103;28;20027;-71
2020/12/15 05:02:18;;;;;;;28.98;19.63;;;4.10;83.30;;;;;;4962618;28;20023;-70
2020/12/15 05:04:44;;;;;;;29.50;18.88;;;4.00;83.10;;;;;;4961840;28;20027;-70
2020/12/15 05:07:11;;;;;;;28.92;18.15;;;4.10;83.00;;;;;;4967866;28;20514;-70
2020/12/15 05:09:37;;;;;;;32.28;20.40;;;4.00;82.90;;;;;;4957112;28;20023;-71
2020/12/15 05:12:04;;;;;;;28.70;18.95;;;4.10;83.00;;;;;;4967238;28;20106;-70
2020/12/15 05:14:30;;;;;;;28.75;19.05;;;4.00;82.80;;;;;;4963975;28;20031;-70
2020/12/15 05:16:56;;;;;;;29.35;20.00;;;4.00;82.80;;;;;;4960116;28;20030;-71
2020/12/15 05:19:22;;;;;;;28.50;18.70;;;4.00;82.90;;;;;;4969484;28;20367;-72
2020/12/15 05:21:54;;;;;;;27.15;17.92;;;4.00;83.10;;;;;;4958397;28;20027;-72
2020/12/15 05:24:27;;;;;;;31.40;19.13;;;4.00;83.10;;;;;;4964887;28;20023;-72
2020/12/15 05:26:56;;;;;;;27.42;17.38;;;3.90;83.20;;;;;;4965561;28;20046;-71
2020/12/15 05:29:23;;;;;;;34.10;19.40;;;3.90;83.40;;;;;;4955233;28;20614;-72
2020/12/15 05:31:49;;;;;;;30.13;19.42;;;3.80;83.60;;;;;;4969128;28;20034;-72
2020/12/15 05:34:23;;;;;;;29.42;18.42;;;3.80;83.60;;;;;;4962729;28;20057;-71
2020/12/15 05:36:51;;;;;;;28.75;18.88;;;3.80;83.60;;;;;;4961627;28;20035;-72
2020/12/15 05:39:17;;;;;;;30.10;19.50;;;3.80;83.70;;;;;;4970506;28;20498;-72
2020/12/15 05:41:43;;;;;;;30.08;19.45;;;3.70;83.80;;;;;;4958479;28;20081;-72
2020/12/15 05:44:10;;;;;;;31.42;18.83;;;3.80;83.80;;;;;;4966995;28;20486;-71
2020/12/15 05:46:45;;;;;;;30.10;19.60;;;3.80;83.80;;;;;;4964167;28;20071;-72
2020/12/15 05:49:13;;;;;;;34.13;20.73;;;3.80;83.70;;;;;;4957058;28;20081;-71
2020/12/15 05:51:43;;;;;;;33.55;20.90;;;3.90;83.50;;;;;;4970430;28;20034;-71
2020/12/15 05:54:14;;;;;;;32.78;20.00;;;3.90;83.40;;;;;;4961709;28;20094;-72
2020/12/15 05:56:41;;;;;;;31.13;20.00;;;3.90;83.40;;;;;;4961109;28;20028;-72
2020/12/15 05:59:20;;;;;;;34.10;21.35;;;3.80;83.50;;;;;;4969038;28;20038;-72
2020/12/15 06:01:53;;;;;;;32.75;21.13;;;3.90;83.40;;;;;;4958248;28;20023;-71
2020/12/15 06:04:20;;;;;;;35.88;20.52;;;3.90;83.40;;;;;;4965200;28;20474;-71
2020/12/15 06:06:46;;;;;;;34.05;21.63;;;3.90;83.50;;;;;;4966060;28;20054;-72
2020/12/15 06:09:17;;;;;;;34.38;21.20;;;3.80;83.70;;;;;;4957887;28;20102;-72
2020/12/15 06:11:44;;;;;;;37.97;21.10;;;3.80;83.60;;;;;;4957685;28;20121;-72
2020/12/15 06:14:12;;;;;;;35.53;22.42;;;3.70;83.90;;;;;;4966119;28;20309;-73
2020/12/15 06:16:39;;;;;;;35.83;22.20;;;3.70;84.20;;;;;;4964925;28;20034;-73
2020/12/15 06:19:11;;;;;;;37.10;23.17;;;3.70;84.30;;;;;;4973245;28;20031;-72
2020/12/15 06:21:46;;;;;;;34.35;21.58;;;3.70;84.20;;;;;;4956012;28;20109;-72
2020/12/15 06:24:21;;;;;;;40.10;22.70;;;3.70;84.10;;;;;;4964538;28;20027;-71
2020/12/15 06:27:00;;;;;;;36.85;23.02;;;3.70;84.30;;;;;;4965980;28;20030;-72
2020/12/15 06:29:37;;;;;;;36.97;21.73;;;3.70;84.40;;;;;;4955754;28;20019;-71
2020/12/15 06:32:08;;;;;;;40.60;23.92;;;3.70;84.40;;;;;;4966890;28;20031;-72
2020/12/15 06:34:34;;;;;;;;;;;3.70;84.40;;;;;;4963341;28;20031;-72
2020/12/15 06:37:00;;;;;;;40.67;24.13;;;3.60;84.60;;;;;;4958818;28;20050;-73
2020/12/15 06:39:28;;;;;;;36.35;23.40;;;3.60;84.70;;;;;;4969872;28;20390;-72
2020/12/15 06:42:02;;;;;;;37.85;23.73;;;3.60;84.70;;;;;;4958908;28;20427;-73
2020/12/15 06:44:33;;;;;;;40.80;25.48;;;3.50;84.90;;;;;;4963553;28;20059;-71
2020/12/15 06:47:00;;;;;;;37.28;23.13;;;3.50;85.30;;;;;;4967170;28;20097;-71
2020/12/15 06:49:37;;;;;;;42.00;24.08;;;3.50;85.10;;;;;;4956900;28;20066;-72
2020/12/15 06:52:08;;;;;;;36.92;23.35;;;3.50;85.30;;;;;;4966743;28;20083;-72
2020/12/15 06:54:38;;;;;;;40.13;25.15;;;3.50;85.20;;;;;;4964412;28;20478;-72
2020/12/15 06:57:07;;;;;;;39.67;23.70;;;3.50;85.10;;;;;;4956959;28;20023;-72
2020/12/15 06:59:37;;;;;;;40.75;25.52;;;3.50;85.10;;;;;;4969123;28;20062;-71
2020/12/15 07:02:16;;;;;;;38.70;23.83;;;3.50;85.10;;;;;;4960172;28;20027;-72
2020/12/15 07:04:47;;;;;;;44.30;24.55;;;3.60;85.00;;;;;;4961508;28;20094;-71
2020/12/15 07:07:15;;;;;;;38.83;23.05;;;3.60;85.10;;;;;;4968787;28;20051;-72
2020/12/15 07:09:45;;;;;;;40.15;24.13;;;3.60;84.80;;;;;;4956645;28;20019;-72
2020/12/15 07:12:15;;;;;;;40.42;24.63;;;3.70;84.90;;;;;;4965727;28;20433;-72
2020/12/15 07:14:50;;;;;;;37.63;22.70;;;3.80;84.20;;;;;;4964806;28;20030;-72
2020/12/15 07:17:17;;;;;;;37.47;24.20;;;3.90;83.80;;;;;;4972683;28;20041;-72
2020/12/15 07:19:43;;;;;;;41.83;24.23;;;4.00;83.50;;;;;;4960048;28;20026;-71
2020/12/15 07:22:09;;;;;;;37.65;23.65;;;4.00;83.30;;;;;;4969126;28;20090;-72
2020/12/15 07:24:35;;;;;;;46.30;25.55;;;4.00;83.40;;;;;;4972066;28;20027;-72
2020/12/15 07:27:01;;;;;;;38.85;23.67;;;4.10;83.40;;;;;;4971755;28;20031;-71
2020/12/15 07:29:28;;;;;;;40.53;25.50;;;4.10;83.20;;;;;;4956664;28;20058;-72
2020/12/15 07:31:54;;;;;;;42.58;24.52;;;4.10;83.00;;;;;;4969531;28;20027;-72
2020/12/15 07:34:20;;;;;;;38.25;23.17;;;4.20;82.80;;;;;;4965408;28;20039;-72
2020/12/15 07:36:50;;;;;;;38.92;24.25;;;4.20;82.60;;;;;;4964102;28;20047;-73
2020/12/15 07:39:17;;;;;;;38.70;25.17;;;4.30;82.60;;;;;;4971880;28;20188;-72
2020/12/15 07:41:54;;;;;;;39.05;23.45;;;4.30;82.50;;;;;;4943589;28;20474;-71
2020/12/15 07:44:19;;;;;;;42.45;25.55;;;4.30;82.40;;;;;;4967710;28;20474;-72
2020/12/15 07:46:47;;;;;;;37.60;23.95;;;4.40;82.20;;;;;;4968512;28;20059;-71
2020/12/15 07:49:13;;;;;;;41.33;24.35;;;4.40;82.10;;;;;;4960097;28;20378;-69
2020/12/15 07:51:40;;;;;;;38.17;24.30;;;4.40;82.20;;;;;;4970974;28;20084;-72
2020/12/15 07:54:06;;;;;;;41.25;25.33;;;4.40;82.10;;;;;;4974277;28;20041;-72
2020/12/15 07:56:32;;;;;;;39.28;24.55;;;4.40;82.30;;;;;;4971741;28;20019;-78
2020/12/15 07:58:58;;;;;;;36.53;23.52;;;4.40;82.30;;;;;;4972429;28;20394;-76
2020/12/15 08:01:29;;;;;;;38.35;23.27;;;4.40;82.10;;;;;;4972338;28;20023;-77
2020/12/15 08:04:01;;;;;;;35.92;23.42;;;4.50;82.40;;;;;;4970118;28;20058;-77
2020/12/15 08:06:32;;;;;;;40.80;24.70;;;4.50;81.90;;;;;;4974830;28;20078;-77
2020/12/15 08:08:59;;;;;;;37.78;23.17;;;4.50;81.60;;;;;;4973093;28;20490;-72
2020/12/15 08:11:25;;;;;;;38.10;22.95;;;4.50;81.70;;;;;;4971376;28;20027;-72
2020/12/15 08:13:51;;;;;;;42.78;25.48;;;4.50;81.50;;;;;;4970614;28;20114;-73
2020/12/15 08:16:17;;;;;;;37.15;22.75;;;4.50;81.50;;;;;;4964183;28;20112;-73
2020/12/15 08:18:45;;;;;;;36.13;23.02;;;4.50;81.50;;;;;;4963770;28;20059;-71
2020/12/15 08:21:16;;;;;;;42.10;25.23;;;4.60;81.30;;;;;;4970261;28;20035;-70
2020/12/15 08:23:51;;;;;;;36.47;22.55;;;4.60;81.40;;;;;;4968219;28;20149;-71
2020/12/15 08:26:17;;;;;;;34.50;21.15;;;4.60;81.30;;;;;;4958518;28;20114;-72
2020/12/15 08:28:46;;;;;;;37.05;21.88;;;4.60;81.10;;;;;;4965128;28;20038;-76
2020/12/15 08:31:26;;;;;;;;;;;;;;;;;;;;;
2020/12/15 08:33:53;;;;;;;38.15;21.65;;;4.70;80.80;;;;;;4965949;28;20035;-72
2020/12/15 08:36:18;;;;;;;37.85;22.63;;;4.70;80.50;;;;;;4973922;28;20035;-70
2020/12/15 08:38:44;;;;;;;36.45;22.30;;;4.80;80.30;;;;;;4970734;28;20081;-72
2020/12/15 08:41:14;;;;;;;38.42;22.33;;;4.80;80.00;;;;;;4971944;28;20030;-70
2020/12/15 08:43:41;;;;;;;34.80;21.33;;;4.80;80.10;;;;;;4971822;28;20019;-72
2020/12/15 08:46:19;;;;;;;34.10;21.17;;;4.80;80.10;;;;;;4973037;28;20058;-70
2020/12/15 08:48:45;;;;;;;38.22;21.67;;;4.80;80.10;;;;;;4960503;28;20269;-73
2020/12/15 08:51:16;;;;;;;32.15;19.63;;;4.90;80.10;;;;;;4969971;28;20035;-72
2020/12/15 08:53:43;;;;;;;34.85;20.05;;;4.90;79.80;;;;;;4956340;28;20083;-71
2020/12/15 08:56:16;;;;;;;34.03;21.13;;;5.00;79.50;;;;;;4953163;29;20821;-73
2020/12/15 08:58:43;;;;;;;35.53;20.55;;;5.10;79.40;;;;;;4961722;28;20054;-71
2020/12/15 09:01:09;;;;;;;30.08;19.67;;;5.20;79.20;;;;;;4970674;28;20038;-70
2020/12/15 09:03:46;;;;;;;32.20;20.10;;;5.10;79.20;;;;;;4971227;28;20023;-74
2020/12/15 09:06:11;;;;;;;32.72;20.73;;;5.10;79.20;;;;;;4961754;28;20218;-74
2020/12/15 09:08:46;;;;;;;33.75;21.08;;;5.00;79.30;;;;;;4962627;28;20475;-75
2020/12/15 09:11:13;;;;;;;34.33;20.85;;;5.10;79.40;;;;;;4969749;28;20035;-71
2020/12/15 09:13:49;;;;;;;29.45;18.63;;;5.10;79.30;;;;;;4957428;28;20363;-74
2020/12/15 09:16:37;;;;;;;32.78;19.85;;;5.20;79.30;;;;;;4965633;28;20031;-75
2020/12/15 09:19:13;;;;;;;34.80;20.65;;;5.20;79.10;;;;;;4958875;28;20127;-72
2020/12/15 09:21:53;;;;;;;31.40;19.58;;;5.20;79.10;;;;;;4970043;28;20050;-71
2020/12/15 09:24:19;;;;;;;32.92;19.48;;;5.30;79.20;;;;;;4962513;28;20031;-70
2020/12/15 09:26:44;;;;;;;39.38;21.63;;;5.50;78.40;;;;;;4972413;28;20113;-69
2020/12/15 09:29:11;;;;;;;40.67;22.80;;;5.50;78.10;;;;;;4973424;28;20482;-73
2020/12/15 09:31:40;;;;;;;32.20;19.90;;;5.60;77.80;;;;;;4965075;28;20031;-72
2020/12/15 09:34:06;;;;;;;34.03;20.60;;;5.60;77.90;;;;;;4954235;28;20039;-74
2020/12/15 09:36:32;;;;;;;30.88;18.90;;;5.70;77.30;;;;;;4952828;28;20356;-70
2020/12/15 09:38:58;;;;;;;30.33;19.42;;;5.80;77.30;;;;;;4954141;28;20187;-72
2020/12/15 09:41:24;;;;;;;28.50;18.02;;;5.80;77.10;;;;;;4953942;28;20131;-74
2020/12/15 09:43:50;;;;;;;31.00;19.38;;;5.80;77.00;;;;;;4953962;28;20030;-72
2020/12/15 09:46:15;;;;;;;32.10;20.10;;;5.90;76.80;;;;;;4954014;28;20062;-74
2020/12/15 09:48:41;;;;;;;33.03;20.90;;;5.80;76.90;;;;;;4954038;28;20027;-74
2020/12/15 09:51:11;;;;;;;39.30;21.60;;;5.80;76.80;;;;;;4953976;28;20030;-73
2020/12/15 09:53:36;;;;;;;34.60;22.20;;;5.80;77.10;;;;;;4957310;28;20034;-72
2020/12/15 09:56:02;;;;;;;40.90;23.83;;;5.80;77.00;;;;;;4972203;28;20065;-72
2020/12/15 09:58:28;;;;;;;44.80;24.20;;;5.80;77.30;;;;;;4973025;28;20023;-73
2020/12/15 10:00:54;;;;;;;35.50;21.17;;;5.70;77.70;;;;;;4966072;28;20023;-73
2020/12/15 10:03:20;;;;;;;36.33;22.83;;;5.70;77.80;;;;;;4954177;28;20034;-72
2020/12/15 10:05:46;;;;;;;35.70;20.98;;;5.70;77.90;;;;;;4953688;28;20043;-71
2020/12/15 10:08:12;;;;;;;31.27;19.10;;;5.70;77.70;;;;;;4954024;28;20028;-72
2020/12/15 10:10:37;;;;;;;31.17;19.10;;;5.70;77.70;;;;;;4953754;28;20151;-72
2020/12/15 10:13:03;;;;;;;32.75;20.02;;;5.70;77.20;;;;;;4953443;28;20020;-71
2020/12/15 10:15:29;;;;;;;32.33;19.55;;;5.80;76.90;;;;;;4953562;29;20030;-72
2020/12/15 10:17:55;;;;;;;29.73;18.38;;;5.90;76.60;;;;;;4954632;28;20050;-74
2020/12/15 10:20:21;;;;;;;29.23;17.67;;;5.90;76.40;;;;;;4962926;28;20622;-72
2020/12/15 10:22:47;;;;;;;34.03;19.42;;;5.90;76.50;;;;;;4961203;28;20447;-71
2020/12/15 10:25:13;;;;;;;27.77;17.23;;;6.00;76.10;;;;;;4973162;28;20027;-73
2020/12/15 10:27:39;;;;;;;26.48;18.13;;;6.00;75.80;;;;;;4970393;28;20539;-72
2020/12/15 10:30:05;;;;;;;29.00;17.67;;;6.00;75.80;;;;;;4965943;28;20431;-72
2020/12/15 10:32:30;;;;;;;31.42;18.17;;;6.00;75.60;;;;;;4954829;28;20023;-73
2020/12/15 10:34:56;;;;;;;30.20;18.42;;;6.10;75.50;;;;;;4953175;28;20039;-74
2020/12/15 10:37:23;;;;;;;28.50;17.05;;;6.10;75.30;;;;;;4957452;28;20123;-73
2020/12/15 10:39:49;;;;;;;27.35;17.27;;;6.00;75.40;;;;;;4957642;28;20026;-73
2020/12/15 10:42:15;;;;;;;29.85;17.33;;;6.10;75.30;;;;;;4959154;28;20078;-72
2020/12/15 10:44:41;;;;;;;27.98;15.68;;;6.00;75.40;;;;;;4963602;28;20023;-74
2020/12/15 10:47:07;;;;;;;26.02;16.38;;;6.00;74.90;;;;;;4953541;28;20434;-73
2020/12/15 10:49:32;;;;;;;27.80;18.02;;;5.90;75.30;;;;;;4970811;28;20026;-73
2020/12/15 10:51:58;;;;;;;25.20;15.75;;;6.00;75.10;;;;;;4972148;28;20496;-73
2020/12/15 10:54:25;;;;;;;27.40;15.75;;;5.90;75.10;;;;;;4959546;28;20035;-72
2020/12/15 10:56:51;;;;;;;26.20;16.15;;;6.00;75.50;;;;;;4962862;28;20023;-75
2020/12/15 10:59:17;;;;;;;28.77;17.60;;;5.90;75.50;;;;;;4970825;28;20086;-76
2020/12/15 11:01:43;;;;;;;30.38;17.38;;;5.80;75.90;;;;;;4961833;28;20019;-77
2020/12/15 11:04:08;;;;;;;27.02;15.85;;;5.90;75.50;;;;;;4972345;28;20108;-76
2020/12/15 11:06:36;;;;;;;26.55;16.88;;;5.90;75.60;;;;;;4973659;28;20062;-79
2020/12/15 11:09:03;;;;;;;27.63;16.48;;;6.00;75.50;;;;;;4976037;28;20045;-77
2020/12/15 11:11:28;;;;;;;28.42;17.38;;;5.90;75.70;;;;;;4969835;28;20094;-76
2020/12/15 11:13:54;;;;;;;27.65;16.73;;;6.00;75.70;;;;;;4969753;23;20035;-76
2020/12/15 11:16:22;;;;;;;27.88;16.50;;;6.10;74.90;;;;;;4975440;28;20038;-74
2020/12/15 11:18:48;;;;;;;26.85;16.13;;;6.20;75.10;;;;;;4956041;28;20512;-74
2020/12/15 11:21:14;;;;;;;26.27;15.63;;;6.30;74.50;;;;;;4956584;28;20024;-74
2020/12/15 11:23:40;;;;;;;26.10;15.70;;;6.50;74.20;;;;;;4956956;29;20075;-74
2020/12/15 11:26:06;;;;;;;30.80;16.48;;;6.50;73.90;;;;;;4956427;28;20034;-76
2020/12/15 11:28:32;;;;;;;25.75;16.73;;;6.50;73.50;;;;;;4967946;28;20026;-74
2020/12/15 11:30:57;;;;;;;24.98;16.00;;;6.50;73.90;;;;;;4975631;28;20501;-76
2020/12/15 11:33:23;;;;;;;25.48;15.65;;;6.50;74.00;;;;;;4975499;28;20027;-72
2020/12/15 11:35:50;;;;;;;29.85;17.40;;;6.40;74.20;;;;;;4975541;28;20081;-74
2020/12/15 11:38:17;;;;;;;26.98;16.17;;;6.50;74.30;;;;;;4975416;28;20027;-73
2020/12/15 11:40:44;;;;;;;28.92;16.77;;;6.50;74.40;;;;;;4975288;28;20077;-74
2020/12/15 11:43:09;;;;;;;25.50;16.25;;;6.50;74.50;;;;;;4975450;28;20085;-74
2020/12/15 11:45:35;;;;;;;26.67;15.45;;;6.50;74.20;;;;;;4975275;28;20489;-72
2020/12/15 11:48:01;;;;;;;26.10;15.10;;;6.60;74.40;;;;;;4975104;28;20022;-73
2020/12/15 11:50:28;;;;;;;25.92;14.70;;;6.70;74.00;;;;;;4974130;28;20034;-73
2020/12/15 11:52:55;;;;;;;25.35;14.55;;;6.80;73.80;;;;;;4975202;28;20022;-74
2020/12/15 11:55:24;;;;;;;25.25;15.35;;;6.90;73.30;;;;;;4974975;28;20098;-74
2020/12/15 11:57:53;;;;;;;23.55;14.40;;;7.00;73.40;;;;;;4975293;28;20022;-74
2020/12/15 12:00:19;;;;;;;25.58;14.65;;;7.00;73.00;;;;;;4975262;28;20150;-74
2020/12/15 12:02:45;;;;;;;22.25;14.60;;;6.90;73.20;;;;;;4974992;28;20506;-74
2020/12/15 12:05:11;;;;;;;26.75;14.18;;;6.80;73.60;;;;;;4975129;28;20711;-74
2020/12/15 12:07:36;;;;;;;24.73;15.50;;;6.70;73.70;;;;;;4974697;28;20022;-74
2020/12/15 12:10:04;;;;;;;22.23;14.25;;;6.70;74.00;;;;;;4973567;28;20031;-72
2020/12/15 12:12:29;;;;;;;26.20;14.57;;;6.70;73.70;;;;;;4975116;28;20297;-72
2020/12/15 12:14:55;;;;;;;28.38;17.15;;;6.60;74.10;;;;;;4973215;28;20050;-77
2020/12/15 12:17:21;;;;;;;23.45;14.65;;;6.70;74.20;;;;;;4974690;28;20019;-76
2020/12/15 12:19:48;;;;;;;37.22;17.00;;;6.60;73.90;;;;;;4974834;28;20058;-75
2020/12/15 12:22:14;;;;;;;22.25;13.52;;;6.50;74.30;;;;;;4974666;28;20030;-76
2020/12/15 12:24:40;;;;;;;26.75;15.70;;;6.50;74.40;;;;;;4974700;28;20033;-75
2020/12/15 12:27:06;;;;;;;25.58;15.38;;;6.50;74.60;;;;;;4974798;28;20107;-75
2020/12/15 12:29:32;;;;;;;26.50;15.48;;;6.60;74.70;;;;;;4973527;28;20117;-75
2020/12/15 12:31:58;;;;;;;25.88;15.02;;;6.60;74.30;;;;;;4974689;28;20019;-76
2020/12/15 12:34:24;;;;;;;25.02;16.42;;;6.60;74.20;;;;;;4974448;28;20035;-75
2020/12/15 12:36:50;;;;;;;22.40;14.38;;;6.70;74.40;;;;;;4974155;28;20041;-76
2020/12/15 12:39:16;;;;;;;25.98;15.88;;;6.80;74.10;;;;;;4974676;28;20097;-76